Middlebury, VT

12:04 AM EST on February 27, 2017 (GMT -0500)
Middlebury College | | Change Station

Elev 392 ft 44.00 °N, 73.17 °W | Updated 3 seconds ago

Partly Cloudy
Partly Cloudy
28.9 °F
Feels Like 20 °F
N
9.0
Wind Variable Wind from SSE
Gusts 12.0 mph

Today
High -- | Low -- °F
--% Chance of Precip.
Yesterday
High -- | Low -- °F
Precip. -- in
Pressure 30.13 in
Visibility 10.0 miles
Clouds Mostly Cloudy 12000 ft
Windchill 20 °F
Dew Point 21 °F
Humidity 71%
Rainfall 0.00 in
Snow Depth Not available.
6:32 AM 5:38 PM
New Moon, 0% visible
METAR K6B0 270455Z AUTO 17007KT 130V190 10SM BKN120 M02/M13 A3013 RMK AO2 T10181130 400211035
Pressure 30.13 in
Visibility 10.0 miles
Clouds Mostly Cloudy 12000 ft
Windchill 20 °F
Dew Point 21 °F
Humidity 71%
Rainfall 0.00 in
Snow Depth Not available.
6:32 AM 5:38 PM
New Moon, 0% visible
METAR K6B0 270455Z AUTO 17007KT 130V190 10SM BKN120 M02/M13 A3013 RMK AO2 T10181130 400211035

Get Your Daily Forecast Email!

Thanks for signing up!

Be on the lookout for a verification email in your inbox.

You'll start receiving the daily forecast at 8 AM.

×

10-Day Weather Forecast

Almanac

Astronomy

Feb. 27, 2017 Rise Set
Actual Time
Civil Twilight
Nautical Twilight
Astronomical Twilight
Moon
Length of Visible Light
Length of Day
Tomorrow will be .
, % of the Moon is Illuminated

Today's Extremes

State Highs State Lows

Community

WunderPhotos

Upload Photos

1,962,540 photos uploaded!

WunderBlog® & News

Nearby

Air Quality

  Air Quality AQ Index Pollutant
Not available.

Snow Depth

Station Depth Elevation

Earthquake Activity

City Distance Mag. Time & Date
Minimum magnitude displayed is 2.5.

Coastal Water Temperatures

Place Temperature

Stations

Nearby Weather Stations

Station Location Temp. Windchill Dew Point Humidity Wind Precip. Elev Updated Type
                   

Watches & Warnings

There are currently no watches in effect.